sensor_id;sensor_type;location;lat;lon;timestamp;P1;durP1;ratioP1;P2;durP2;ratioP2
55784;SDS011;41709;52.536;5.688;2023-05-07T00:00:32;7.25;;;5.47;;
55784;SDS011;41709;52.536;5.688;2023-05-07T00:02:59;7.93;;;5.40;;
55784;SDS011;41709;52.536;5.688;2023-05-07T00:05:24;8.68;;;6.00;;
55784;SDS011;41709;52.536;5.688;2023-05-07T00:07:50;6.95;;;5.35;;
55784;SDS011;41709;52.536;5.688;2023-05-07T00:10:17;6.28;;;5.60;;
55784;SDS011;41709;52.536;5.688;2023-05-07T00:12:43;9.82;;;5.85;;
55784;SDS011;41709;52.536;5.688;2023-05-07T00:15:09;8.82;;;5.28;;
55784;SDS011;41709;52.536;5.688;2023-05-07T00:17:35;7.13;;;5.88;;
55784;SDS011;41709;52.536;5.688;2023-05-07T00:20:01;6.20;;;4.85;;
55784;SDS011;41709;52.536;5.688;2023-05-07T00:22:28;6.05;;;4.15;;
55784;SDS011;41709;52.536;5.688;2023-05-07T00:24:55;6.43;;;4.55;;
55784;SDS011;41709;52.536;5.688;2023-05-07T00:27:20;4.88;;;4.00;;
55784;SDS011;41709;52.536;5.688;2023-05-07T00:29:46;7.20;;;4.32;;
55784;SDS011;41709;52.536;5.688;2023-05-07T00:32:12;7.30;;;4.40;;
55784;SDS011;41709;52.536;5.688;2023-05-07T00:34:37;6.18;;;4.60;;
55784;SDS011;41709;52.536;5.688;2023-05-07T00:37:04;5.68;;;4.15;;
55784;SDS011;41709;52.536;5.688;2023-05-07T00:39:30;5.82;;;4.40;;
55784;SDS011;41709;52.536;5.688;2023-05-07T00:41:55;5.90;;;4.40;;
55784;SDS011;41709;52.536;5.688;2023-05-07T00:44:21;5.90;;;4.15;;
55784;SDS011;41709;52.536;5.688;2023-05-07T00:46:47;5.55;;;4.10;;
55784;SDS011;41709;52.536;5.688;2023-05-07T00:49:14;5.97;;;4.15;;
55784;SDS011;41709;52.536;5.688;2023-05-07T00:51:40;6.55;;;4.63;;
55784;SDS011;41709;52.536;5.688;2023-05-07T00:54:06;6.18;;;4.18;;
55784;SDS011;41709;52.536;5.688;2023-05-07T00:56:33;7.88;;;4.57;;
55784;SDS011;41709;52.536;5.688;2023-05-07T00:59:00;6.13;;;4.35;;
55784;SDS011;41709;52.536;5.688;2023-05-07T01:01:26;5.22;;;4.45;;
55784;SDS011;41709;52.536;5.688;2023-05-07T01:03:52;5.75;;;4.07;;
55784;SDS011;41709;52.536;5.688;2023-05-07T01:06:18;5.70;;;4.55;;
55784;SDS011;41709;52.536;5.688;2023-05-07T01:08:46;5.75;;;4.18;;
55784;SDS011;41709;52.536;5.688;2023-05-07T01:11:12;8.40;;;4.68;;
55784;SDS011;41709;52.536;5.688;2023-05-07T01:13:38;14.32;;;4.50;;
55784;SDS011;41709;52.536;5.688;2023-05-07T01:16:05;5.10;;;4.60;;
55784;SDS011;41709;52.536;5.688;2023-05-07T01:18:31;6.03;;;4.55;;
55784;SDS011;41709;52.536;5.688;2023-05-07T01:20:58;6.57;;;5.05;;
55784;SDS011;41709;52.536;5.688;2023-05-07T01:23:24;7.53;;;4.47;;
55784;SDS011;41709;52.536;5.688;2023-05-07T01:25:52;7.05;;;4.60;;
55784;SDS011;41709;52.536;5.688;2023-05-07T01:28:18;5.38;;;4.57;;
55784;SDS011;41709;52.536;5.688;2023-05-07T01:30:45;6.60;;;5.03;;
55784;SDS011;41709;52.536;5.688;2023-05-07T01:33:15;6.03;;;5.07;;
55784;SDS011;41709;52.536;5.688;2023-05-07T01:35:45;7.25;;;4.82;;
55784;SDS011;41709;52.536;5.688;2023-05-07T01:38:15;6.05;;;5.10;;
55784;SDS011;41709;52.536;5.688;2023-05-07T01:40:41;11.63;;;5.78;;
55784;SDS011;41709;52.536;5.688;2023-05-07T01:43:07;6.03;;;5.43;;
55784;SDS011;41709;52.536;5.688;2023-05-07T01:45:34;8.15;;;5.53;;
55784;SDS011;41709;52.536;5.688;2023-05-07T01:48:00;6.20;;;5.35;;
55784;SDS011;41709;52.536;5.688;2023-05-07T01:50:26;7.22;;;5.85;;
55784;SDS011;41709;52.536;5.688;2023-05-07T01:52:52;9.88;;;5.88;;
55784;SDS011;41709;52.536;5.688;2023-05-07T01:55:18;7.35;;;5.60;;
55784;SDS011;41709;52.536;5.688;2023-05-07T01:57:44;6.60;;;5.60;;
55784;SDS011;41709;52.536;5.688;2023-05-07T02:00:10;7.80;;;6.10;;
55784;SDS011;41709;52.536;5.688;2023-05-07T02:02:35;7.93;;;5.70;;
55784;SDS011;41709;52.536;5.688;2023-05-07T02:05:03;7.18;;;6.07;;
55784;SDS011;41709;52.536;5.688;2023-05-07T02:07:29;8.95;;;6.45;;
55784;SDS011;41709;52.536;5.688;2023-05-07T02:09:54;7.57;;;6.13;;
55784;SDS011;41709;52.536;5.688;2023-05-07T02:12:23;8.25;;;6.22;;
55784;SDS011;41709;52.536;5.688;2023-05-07T02:14:48;7.38;;;6.60;;
55784;SDS011;41709;52.536;5.688;2023-05-07T02:17:14;7.43;;;6.65;;
55784;SDS011;41709;52.536;5.688;2023-05-07T02:19:40;8.48;;;7.00;;
55784;SDS011;41709;52.536;5.688;2023-05-07T02:22:06;10.35;;;6.88;;
55784;SDS011;41709;52.536;5.688;2023-05-07T02:24:32;12.90;;;7.28;;
55784;SDS011;41709;52.536;5.688;2023-05-07T02:26:57;8.88;;;7.75;;
55784;SDS011;41709;52.536;5.688;2023-05-07T02:29:23;8.15;;;7.32;;
55784;SDS011;41709;52.536;5.688;2023-05-07T02:31:48;10.20;;;7.43;;
55784;SDS011;41709;52.536;5.688;2023-05-07T02:34:16;9.68;;;7.93;;
55784;SDS011;41709;52.536;5.688;2023-05-07T02:36:42;9.43;;;7.32;;
55784;SDS011;41709;52.536;5.688;2023-05-07T02:39:07;9.23;;;7.90;;
55784;SDS011;41709;52.536;5.688;2023-05-07T02:41:33;11.73;;;9.13;;
55784;SDS011;41709;52.536;5.688;2023-05-07T02:43:59;10.80;;;8.45;;
55784;SDS011;41709;52.536;5.688;2023-05-07T02:46:24;10.18;;;9.10;;
55784;SDS011;41709;52.536;5.688;2023-05-07T02:48:50;10.07;;;8.90;;
55784;SDS011;41709;52.536;5.688;2023-05-07T02:51:19;11.55;;;8.30;;
55784;SDS011;41709;52.536;5.688;2023-05-07T02:53:45;10.95;;;9.23;;
55784;SDS011;41709;52.536;5.688;2023-05-07T02:56:11;13.50;;;9.90;;
55784;SDS011;41709;52.536;5.688;2023-05-07T02:58:36;12.77;;;11.38;;
55784;SDS011;41709;52.536;5.688;2023-05-07T03:01:04;13.35;;;11.00;;
55784;SDS011;41709;52.536;5.688;2023-05-07T03:03:30;12.63;;;11.30;;
55784;SDS011;41709;52.536;5.688;2023-05-07T03:05:56;13.07;;;11.77;;
55784;SDS011;41709;52.536;5.688;2023-05-07T03:08:21;15.90;;;13.20;;
55784;SDS011;41709;52.536;5.688;2023-05-07T03:10:47;13.90;;;12.13;;
55784;SDS011;41709;52.536;5.688;2023-05-07T03:13:12;13.77;;;12.38;;
55784;SDS011;41709;52.536;5.688;2023-05-07T03:15:38;15.00;;;13.50;;
55784;SDS011;41709;52.536;5.688;2023-05-07T03:18:03;15.18;;;13.43;;
55784;SDS011;41709;52.536;5.688;2023-05-07T03:20:29;17.67;;;14.63;;
55784;SDS011;41709;52.536;5.688;2023-05-07T03:22:55;18.38;;;13.88;;
55784;SDS011;41709;52.536;5.688;2023-05-07T03:25:20;17.02;;;15.23;;
55784;SDS011;41709;52.536;5.688;2023-05-07T03:27:46;16.27;;;14.68;;
55784;SDS011;41709;52.536;5.688;2023-05-07T03:30:11;20.33;;;15.60;;
55784;SDS011;41709;52.536;5.688;2023-05-07T03:32:37;18.55;;;15.80;;
55784;SDS011;41709;52.536;5.688;2023-05-07T03:35:03;16.38;;;14.77;;
55784;SDS011;41709;52.536;5.688;2023-05-07T03:37:29;17.40;;;15.68;;
55784;SDS011;41709;52.536;5.688;2023-05-07T03:39:54;17.50;;;15.43;;
55784;SDS011;41709;52.536;5.688;2023-05-07T03:42:20;17.38;;;15.68;;
55784;SDS011;41709;52.536;5.688;2023-05-07T03:44:45;19.55;;;15.57;;
55784;SDS011;41709;52.536;5.688;2023-05-07T03:47:11;18.63;;;16.73;;
55784;SDS011;41709;52.536;5.688;2023-05-07T03:49:38;18.02;;;16.13;;
55784;SDS011;41709;52.536;5.688;2023-05-07T03:52:04;21.40;;;16.58;;
55784;SDS011;41709;52.536;5.688;2023-05-07T03:54:30;19.00;;;16.63;;
55784;SDS011;41709;52.536;5.688;2023-05-07T03:56:55;20.60;;;17.20;;
55784;SDS011;41709;52.536;5.688;2023-05-07T03:59:21;18.58;;;16.75;;
55784;SDS011;41709;52.536;5.688;2023-05-07T04:01:47;19.20;;;16.75;;
55784;SDS011;41709;52.536;5.688;2023-05-07T04:04:14;17.70;;;15.95;;
55784;SDS011;41709;52.536;5.688;2023-05-07T04:06:39;17.25;;;15.52;;
55784;SDS011;41709;52.536;5.688;2023-05-07T04:09:06;17.90;;;16.08;;
55784;SDS011;41709;52.536;5.688;2023-05-07T04:11:31;17.83;;;15.50;;
55784;SDS011;41709;52.536;5.688;2023-05-07T04:13:57;17.08;;;15.38;;
55784;SDS011;41709;52.536;5.688;2023-05-07T04:16:23;17.88;;;15.55;;
55784;SDS011;41709;52.536;5.688;2023-05-07T04:18:48;17.35;;;15.50;;
55784;SDS011;41709;52.536;5.688;2023-05-07T04:21:17;16.67;;;14.00;;
55784;SDS011;41709;52.536;5.688;2023-05-07T04:23:44;19.70;;;14.77;;
55784;SDS011;41709;52.536;5.688;2023-05-07T04:26:11;16.10;;;14.38;;
55784;SDS011;41709;52.536;5.688;2023-05-07T04:28:37;17.75;;;14.80;;
55784;SDS011;41709;52.536;5.688;2023-05-07T04:31:04;16.77;;;13.65;;
55784;SDS011;41709;52.536;5.688;2023-05-07T04:33:29;15.65;;;13.43;;
55784;SDS011;41709;52.536;5.688;2023-05-07T04:35:55;18.17;;;14.38;;
55784;SDS011;41709;52.536;5.688;2023-05-07T04:38:20;16.15;;;14.15;;
55784;SDS011;41709;52.536;5.688;2023-05-07T04:40:48;16.95;;;14.93;;
55784;SDS011;41709;52.536;5.688;2023-05-07T04:43:14;17.77;;;13.25;;
55784;SDS011;41709;52.536;5.688;2023-05-07T04:45:39;16.42;;;14.55;;
55784;SDS011;41709;52.536;5.688;2023-05-07T04:48:06;15.65;;;13.93;;
55784;SDS011;41709;52.536;5.688;2023-05-07T04:50:32;18.25;;;14.48;;
55784;SDS011;41709;52.536;5.688;2023-05-07T04:52:58;18.33;;;13.80;;
55784;SDS011;41709;52.536;5.688;2023-05-07T04:55:23;16.45;;;14.55;;
55784;SDS011;41709;52.536;5.688;2023-05-07T04:57:49;18.63;;;14.45;;
55784;SDS011;41709;52.536;5.688;2023-05-07T05:00:15;20.75;;;14.35;;
55784;SDS011;41709;52.536;5.688;2023-05-07T05:02:41;21.92;;;15.40;;
55784;SDS011;41709;52.536;5.688;2023-05-07T05:05:07;17.88;;;14.65;;
55784;SDS011;41709;52.536;5.688;2023-05-07T05:07:33;18.33;;;14.10;;
55784;SDS011;41709;52.536;5.688;2023-05-07T05:09:58;19.33;;;14.45;;
55784;SDS011;41709;52.536;5.688;2023-05-07T05:12:24;17.85;;;15.02;;
55784;SDS011;41709;52.536;5.688;2023-05-07T05:14:50;19.80;;;14.98;;
55784;SDS011;41709;52.536;5.688;2023-05-07T05:17:15;28.85;;;15.10;;
55784;SDS011;41709;52.536;5.688;2023-05-07T05:19:41;18.50;;;14.60;;
55784;SDS011;41709;52.536;5.688;2023-05-07T05:22:06;18.35;;;15.73;;
55784;SDS011;41709;52.536;5.688;2023-05-07T05:24:32;21.00;;;15.75;;
55784;SDS011;41709;52.536;5.688;2023-05-07T05:26:57;22.10;;;15.05;;
55784;SDS011;41709;52.536;5.688;2023-05-07T05:29:26;19.27;;;14.83;;
55784;SDS011;41709;52.536;5.688;2023-05-07T05:31:51;19.92;;;16.33;;
55784;SDS011;41709;52.536;5.688;2023-05-07T05:34:17;18.67;;;15.00;;
55784;SDS011;41709;52.536;5.688;2023-05-07T05:36:44;20.35;;;15.57;;
55784;SDS011;41709;52.536;5.688;2023-05-07T05:39:10;22.40;;;15.73;;
55784;SDS011;41709;52.536;5.688;2023-05-07T05:41:35;18.70;;;15.65;;
55784;SDS011;41709;52.536;5.688;2023-05-07T05:44:01;21.20;;;16.40;;
55784;SDS011;41709;52.536;5.688;2023-05-07T05:46:26;20.25;;;15.60;;
55784;SDS011;41709;52.536;5.688;2023-05-07T05:48:52;23.42;;;16.30;;
55784;SDS011;41709;52.536;5.688;2023-05-07T05:51:17;21.38;;;17.25;;
55784;SDS011;41709;52.536;5.688;2023-05-07T05:53:43;20.13;;;16.60;;
55784;SDS011;41709;52.536;5.688;2023-05-07T05:56:09;21.48;;;17.60;;
55784;SDS011;41709;52.536;5.688;2023-05-07T05:58:34;22.48;;;17.20;;
55784;SDS011;41709;52.536;5.688;2023-05-07T06:01:00;24.85;;;18.73;;
55784;SDS011;41709;52.536;5.688;2023-05-07T06:03:27;23.30;;;16.98;;
55784;SDS011;41709;52.536;5.688;2023-05-07T06:05:53;20.45;;;16.55;;
55784;SDS011;41709;52.536;5.688;2023-05-07T06:08:18;20.75;;;16.65;;
55784;SDS011;41709;52.536;5.688;2023-05-07T06:10:44;24.40;;;17.70;;
55784;SDS011;41709;52.536;5.688;2023-05-07T06:13:10;23.25;;;17.92;;
55784;SDS011;41709;52.536;5.688;2023-05-07T06:15:36;21.10;;;16.17;;
55784;SDS011;41709;52.536;5.688;2023-05-07T06:18:02;23.67;;;16.90;;
55784;SDS011;41709;52.536;5.688;2023-05-07T06:20:27;20.63;;;17.48;;
55784;SDS011;41709;52.536;5.688;2023-05-07T06:22:53;20.85;;;17.23;;
55784;SDS011;41709;52.536;5.688;2023-05-07T06:25:18;23.80;;;17.15;;
55784;SDS011;41709;52.536;5.688;2023-05-07T06:27:44;21.17;;;17.10;;
55784;SDS011;41709;52.536;5.688;2023-05-07T06:30:10;20.48;;;16.52;;
55784;SDS011;41709;52.536;5.688;2023-05-07T06:32:36;22.25;;;17.90;;
55784;SDS011;41709;52.536;5.688;2023-05-07T06:35:02;21.25;;;16.83;;
55784;SDS011;41709;52.536;5.688;2023-05-07T06:37:27;25.58;;;17.85;;
55784;SDS011;41709;52.536;5.688;2023-05-07T06:39:53;22.65;;;17.83;;
55784;SDS011;41709;52.536;5.688;2023-05-07T06:42:19;23.88;;;17.42;;
55784;SDS011;41709;52.536;5.688;2023-05-07T06:44:44;25.02;;;18.20;;
55784;SDS011;41709;52.536;5.688;2023-05-07T06:47:10;23.75;;;18.77;;
55784;SDS011;41709;52.536;5.688;2023-05-07T06:49:35;22.27;;;18.17;;
55784;SDS011;41709;52.536;5.688;2023-05-07T06:52:01;21.95;;;16.67;;
55784;SDS011;41709;52.536;5.688;2023-05-07T06:54:27;19.33;;;16.10;;
55784;SDS011;41709;52.536;5.688;2023-05-07T06:56:52;24.30;;;18.70;;
55784;SDS011;41709;52.536;5.688;2023-05-07T06:59:18;22.40;;;17.30;;
55784;SDS011;41709;52.536;5.688;2023-05-07T07:01:44;22.60;;;17.25;;
55784;SDS011;41709;52.536;5.688;2023-05-07T07:04:09;21.48;;;17.38;;
55784;SDS011;41709;52.536;5.688;2023-05-07T07:06:35;21.75;;;17.27;;
55784;SDS011;41709;52.536;5.688;2023-05-07T07:09:01;22.27;;;17.77;;
55784;SDS011;41709;52.536;5.688;2023-05-07T07:11:26;22.15;;;17.42;;
55784;SDS011;41709;52.536;5.688;2023-05-07T07:13:52;23.27;;;17.30;;
55784;SDS011;41709;52.536;5.688;2023-05-07T07:16:19;21.55;;;18.10;;
55784;SDS011;41709;52.536;5.688;2023-05-07T07:18:45;25.98;;;19.23;;
55784;SDS011;41709;52.536;5.688;2023-05-07T07:21:11;24.00;;;17.48;;
55784;SDS011;41709;52.536;5.688;2023-05-07T07:23:37;23.15;;;17.20;;
55784;SDS011;41709;52.536;5.688;2023-05-07T07:26:03;22.75;;;18.67;;
55784;SDS011;41709;52.536;5.688;2023-05-07T07:28:29;25.02;;;17.23;;
55784;SDS011;41709;52.536;5.688;2023-05-07T07:30:54;20.38;;;16.80;;
55784;SDS011;41709;52.536;5.688;2023-05-07T07:33:20;20.80;;;18.02;;
55784;SDS011;41709;52.536;5.688;2023-05-07T07:35:45;28.35;;;17.75;;
55784;SDS011;41709;52.536;5.688;2023-05-07T07:38:11;21.20;;;16.88;;
55784;SDS011;41709;52.536;5.688;2023-05-07T07:40:36;19.38;;;15.90;;
55784;SDS011;41709;52.536;5.688;2023-05-07T07:43:02;22.02;;;17.23;;
55784;SDS011;41709;52.536;5.688;2023-05-07T07:45:28;22.17;;;16.73;;
55784;SDS011;41709;52.536;5.688;2023-05-07T07:47:54;22.15;;;16.40;;
55784;SDS011;41709;52.536;5.688;2023-05-07T07:50:19;20.48;;;16.45;;
55784;SDS011;41709;52.536;5.688;2023-05-07T07:52:45;23.10;;;17.42;;
55784;SDS011;41709;52.536;5.688;2023-05-07T07:55:11;19.88;;;16.63;;
55784;SDS011;41709;52.536;5.688;2023-05-07T07:57:37;21.33;;;16.00;;
55784;SDS011;41709;52.536;5.688;2023-05-07T08:00:03;21.92;;;17.13;;
55784;SDS011;41709;52.536;5.688;2023-05-07T08:02:29;21.85;;;16.63;;
55784;SDS011;41709;52.536;5.688;2023-05-07T08:04:55;21.13;;;16.33;;
55784;SDS011;41709;52.536;5.688;2023-05-07T08:07:20;19.83;;;16.13;;
55784;SDS011;41709;52.536;5.688;2023-05-07T08:09:47;20.73;;;16.60;;
55784;SDS011;41709;52.536;5.688;2023-05-07T08:12:13;22.27;;;17.05;;
55784;SDS011;41709;52.536;5.688;2023-05-07T08:14:38;21.75;;;15.98;;
55784;SDS011;41709;52.536;5.688;2023-05-07T08:17:04;20.65;;;16.50;;
55784;SDS011;41709;52.536;5.688;2023-05-07T08:19:30;21.17;;;16.13;;
55784;SDS011;41709;52.536;5.688;2023-05-07T08:21:55;22.23;;;16.92;;
55784;SDS011;41709;52.536;5.688;2023-05-07T08:24:21;20.73;;;17.42;;
55784;SDS011;41709;52.536;5.688;2023-05-07T08:26:46;21.98;;;16.50;;
55784;SDS011;41709;52.536;5.688;2023-05-07T08:29:12;22.35;;;17.25;;
55784;SDS011;41709;52.536;5.688;2023-05-07T08:31:37;22.33;;;18.15;;
55784;SDS011;41709;52.536;5.688;2023-05-07T08:34:06;22.30;;;16.80;;
55784;SDS011;41709;52.536;5.688;2023-05-07T08:36:32;22.52;;;16.35;;
55784;SDS011;41709;52.536;5.688;2023-05-07T08:38:57;23.05;;;16.90;;
55784;SDS011;41709;52.536;5.688;2023-05-07T08:41:24;24.38;;;18.27;;
55784;SDS011;41709;52.536;5.688;2023-05-07T08:43:50;21.80;;;17.48;;
55784;SDS011;41709;52.536;5.688;2023-05-07T08:46:20;19.40;;;15.65;;
55784;SDS011;41709;52.536;5.688;2023-05-07T08:48:49;20.77;;;16.08;;
55784;SDS011;41709;52.536;5.688;2023-05-07T08:51:16;23.90;;;16.67;;
55784;SDS011;41709;52.536;5.688;2023-05-07T08:53:45;25.08;;;17.58;;
55784;SDS011;41709;52.536;5.688;2023-05-07T08:56:13;21.00;;;16.90;;
55784;SDS011;41709;52.536;5.688;2023-05-07T08:58:40;21.40;;;17.52;;
55784;SDS011;41709;52.536;5.688;2023-05-07T09:01:07;24.48;;;18.08;;
55784;SDS011;41709;52.536;5.688;2023-05-07T09:03:35;22.38;;;17.55;;
55784;SDS011;41709;52.536;5.688;2023-05-07T09:06:02;23.70;;;17.90;;
55784;SDS011;41709;52.536;5.688;2023-05-07T09:08:28;23.10;;;16.98;;
55784;SDS011;41709;52.536;5.688;2023-05-07T09:10:54;22.60;;;17.25;;
55784;SDS011;41709;52.536;5.688;2023-05-07T09:13:20;19.08;;;16.45;;
55784;SDS011;41709;52.536;5.688;2023-05-07T09:15:46;28.65;;;18.73;;
55784;SDS011;41709;52.536;5.688;2023-05-07T09:18:12;22.90;;;17.42;;
55784;SDS011;41709;52.536;5.688;2023-05-07T09:20:38;19.95;;;16.10;;
55784;SDS011;41709;52.536;5.688;2023-05-07T09:23:04;21.48;;;16.58;;
55784;SDS011;41709;52.536;5.688;2023-05-07T09:25:32;21.50;;;16.50;;
55784;SDS011;41709;52.536;5.688;2023-05-07T09:27:58;21.42;;;17.08;;
55784;SDS011;41709;52.536;5.688;2023-05-07T09:30:28;19.42;;;16.88;;
55784;SDS011;41709;52.536;5.688;2023-05-07T09:32:54;20.95;;;16.75;;
55784;SDS011;41709;52.536;5.688;2023-05-07T09:35:21;21.60;;;15.88;;
55784;SDS011;41709;52.536;5.688;2023-05-07T09:37:49;18.08;;;15.30;;
55784;SDS011;41709;52.536;5.688;2023-05-07T09:40:21;18.45;;;14.88;;
55784;SDS011;41709;52.536;5.688;2023-05-07T09:42:48;17.00;;;13.98;;
55784;SDS011;41709;52.536;5.688;2023-05-07T09:45:15;17.35;;;14.38;;
55784;SDS011;41709;52.536;5.688;2023-05-07T09:48:06;20.48;;;15.80;;
55784;SDS011;41709;52.536;5.688;2023-05-07T09:50:35;22.73;;;16.90;;
55784;SDS011;41709;52.536;5.688;2023-05-07T09:53:05;18.30;;;14.77;;
55784;SDS011;41709;52.536;5.688;2023-05-07T09:55:31;20.20;;;15.30;;
55784;SDS011;41709;52.536;5.688;2023-05-07T09:57:57;19.73;;;16.92;;
55784;SDS011;41709;52.536;5.688;2023-05-07T10:00:24;21.92;;;15.52;;
55784;SDS011;41709;52.536;5.688;2023-05-07T10:02:52;20.67;;;16.25;;
55784;SDS011;41709;52.536;5.688;2023-05-07T10:05:18;20.08;;;15.55;;
55784;SDS011;41709;52.536;5.688;2023-05-07T10:07:47;21.45;;;16.25;;
55784;SDS011;41709;52.536;5.688;2023-05-07T10:10:13;19.73;;;16.35;;
55784;SDS011;41709;52.536;5.688;2023-05-07T10:12:40;19.90;;;15.75;;
55784;SDS011;41709;52.536;5.688;2023-05-07T10:15:06;19.50;;;15.07;;
55784;SDS011;41709;52.536;5.688;2023-05-07T10:17:36;19.98;;;16.02;;
55784;SDS011;41709;52.536;5.688;2023-05-07T10:20:04;19.65;;;15.52;;
55784;SDS011;41709;52.536;5.688;2023-05-07T10:22:31;22.63;;;17.42;;
55784;SDS011;41709;52.536;5.688;2023-05-07T10:25:02;22.98;;;16.80;;
55784;SDS011;41709;52.536;5.688;2023-05-07T10:27:28;19.40;;;15.75;;
55784;SDS011;41709;52.536;5.688;2023-05-07T10:34:53;20.87;;;16.30;;
55784;SDS011;41709;52.536;5.688;2023-05-07T10:37:21;18.48;;;15.45;;
55784;SDS011;41709;52.536;5.688;2023-05-07T10:39:48;17.38;;;14.77;;
55784;SDS011;41709;52.536;5.688;2023-05-07T10:42:14;23.27;;;15.90;;
55784;SDS011;41709;52.536;5.688;2023-05-07T10:44:40;13.77;;;11.43;;
55784;SDS011;41709;52.536;5.688;2023-05-07T10:47:06;15.80;;;11.02;;
55784;SDS011;41709;52.536;5.688;2023-05-07T10:49:34;13.00;;;11.33;;
55784;SDS011;41709;52.536;5.688;2023-05-07T10:52:23;13.82;;;12.15;;
55784;SDS011;41709;52.536;5.688;2023-05-07T10:57:50;13.75;;;12.20;;
55784;SDS011;41709;52.536;5.688;2023-05-07T11:05:25;16.15;;;14.20;;
55784;SDS011;41709;52.536;5.688;2023-05-07T11:07:55;17.58;;;14.43;;
55784;SDS011;41709;52.536;5.688;2023-05-07T11:13:16;14.05;;;11.73;;
55784;SDS011;41709;52.536;5.688;2023-05-07T11:15:43;18.02;;;14.27;;
55784;SDS011;41709;52.536;5.688;2023-05-07T11:18:11;19.13;;;15.23;;
55784;SDS011;41709;52.536;5.688;2023-05-07T11:20:56;20.35;;;15.20;;
55784;SDS011;41709;52.536;5.688;2023-05-07T11:26:03;14.13;;;11.55;;
55784;SDS011;41709;52.536;5.688;2023-05-07T11:28:30;13.35;;;10.27;;
55784;SDS011;41709;52.536;5.688;2023-05-07T11:30:56;13.98;;;11.65;;
55784;SDS011;41709;52.536;5.688;2023-05-07T11:33:22;13.60;;;10.52;;
55784;SDS011;41709;52.536;5.688;2023-05-07T11:35:50;11.70;;;10.20;;
55784;SDS011;41709;52.536;5.688;2023-05-07T11:38:18;12.77;;;9.90;;
55784;SDS011;41709;52.536;5.688;2023-05-07T11:40:56;13.38;;;10.15;;
55784;SDS011;41709;52.536;5.688;2023-05-07T11:43:27;11.77;;;10.02;;
55784;SDS011;41709;52.536;5.688;2023-05-07T11:45:53;13.35;;;11.38;;
55784;SDS011;41709;52.536;5.688;2023-05-07T11:48:19;16.63;;;12.25;;
55784;SDS011;41709;52.536;5.688;2023-05-07T11:50:54;13.15;;;11.32;;
55784;SDS011;41709;52.536;5.688;2023-05-07T11:53:25;14.15;;;11.20;;
55784;SDS011;41709;52.536;5.688;2023-05-07T11:55:57;16.92;;;12.63;;
55784;SDS011;41709;52.536;5.688;2023-05-07T11:58:23;17.02;;;14.23;;
55784;SDS011;41709;52.536;5.688;2023-05-07T12:00:50;20.20;;;14.45;;
55784;SDS011;41709;52.536;5.688;2023-05-07T12:03:17;18.95;;;14.80;;
55784;SDS011;41709;52.536;5.688;2023-05-07T12:05:45;18.70;;;14.82;;
55784;SDS011;41709;52.536;5.688;2023-05-07T12:08:18;18.75;;;15.45;;
55784;SDS011;41709;52.536;5.688;2023-05-07T12:10:45;20.88;;;15.98;;
55784;SDS011;41709;52.536;5.688;2023-05-07T12:13:15;19.35;;;15.02;;
55784;SDS011;41709;52.536;5.688;2023-05-07T12:15:51;20.55;;;15.95;;
55784;SDS011;41709;52.536;5.688;2023-05-07T12:18:17;19.45;;;14.35;;
55784;SDS011;41709;52.536;5.688;2023-05-07T12:20:43;18.15;;;14.50;;
55784;SDS011;41709;52.536;5.688;2023-05-07T12:23:10;18.17;;;14.63;;
55784;SDS011;41709;52.536;5.688;2023-05-07T12:25:36;17.08;;;13.15;;
55784;SDS011;41709;52.536;5.688;2023-05-07T12:28:08;20.58;;;15.30;;
55784;SDS011;41709;52.536;5.688;2023-05-07T12:30:38;15.95;;;13.10;;
55784;SDS011;41709;52.536;5.688;2023-05-07T12:33:04;18.83;;;13.75;;
55784;SDS011;41709;52.536;5.688;2023-05-07T12:35:30;17.80;;;13.82;;
55784;SDS011;41709;52.536;5.688;2023-05-07T12:38:00;16.92;;;13.88;;
55784;SDS011;41709;52.536;5.688;2023-05-07T12:40:38;16.95;;;13.68;;
55784;SDS011;41709;52.536;5.688;2023-05-07T12:43:05;15.20;;;11.88;;
55784;SDS011;41709;52.536;5.688;2023-05-07T12:45:35;15.93;;;10.95;;
55784;SDS011;41709;52.536;5.688;2023-05-07T12:48:03;11.93;;;9.98;;
55784;SDS011;41709;52.536;5.688;2023-05-07T12:50:32;15.32;;;12.20;;
55784;SDS011;41709;52.536;5.688;2023-05-07T12:52:58;17.90;;;11.75;;
55784;SDS011;41709;52.536;5.688;2023-05-07T12:55:24;14.02;;;10.77;;
55784;SDS011;41709;52.536;5.688;2023-05-07T12:57:50;11.60;;;9.90;;
55784;SDS011;41709;52.536;5.688;2023-05-07T13:00:17;13.30;;;9.63;;
55784;SDS011;41709;52.536;5.688;2023-05-07T13:02:58;9.75;;;7.70;;
55784;SDS011;41709;52.536;5.688;2023-05-07T13:05:23;14.65;;;10.80;;
55784;SDS011;41709;52.536;5.688;2023-05-07T13:07:53;13.52;;;10.75;;
55784;SDS011;41709;52.536;5.688;2023-05-07T13:10:19;14.50;;;11.75;;
55784;SDS011;41709;52.536;5.688;2023-05-07T13:12:45;13.38;;;11.05;;
55784;SDS011;41709;52.536;5.688;2023-05-07T13:15:10;18.50;;;10.82;;
55784;SDS011;41709;52.536;5.688;2023-05-07T13:17:36;15.15;;;10.80;;
55784;SDS011;41709;52.536;5.688;2023-05-07T13:20:01;13.35;;;9.45;;
55784;SDS011;41709;52.536;5.688;2023-05-07T13:22:27;11.45;;;8.82;;
55784;SDS011;41709;52.536;5.688;2023-05-07T13:24:52;12.30;;;9.65;;
55784;SDS011;41709;52.536;5.688;2023-05-07T13:27:18;15.13;;;11.45;;
55784;SDS011;41709;52.536;5.688;2023-05-07T13:29:44;15.75;;;12.30;;
55784;SDS011;41709;52.536;5.688;2023-05-07T13:32:10;12.80;;;10.30;;
55784;SDS011;41709;52.536;5.688;2023-05-07T13:34:35;13.90;;;9.30;;
55784;SDS011;41709;52.536;5.688;2023-05-07T13:37:01;11.70;;;9.40;;
55784;SDS011;41709;52.536;5.688;2023-05-07T13:39:27;13.23;;;10.13;;
55784;SDS011;41709;52.536;5.688;2023-05-07T13:41:53;14.73;;;10.52;;
55784;SDS011;41709;52.536;5.688;2023-05-07T13:44:18;12.70;;;9.95;;
55784;SDS011;41709;52.536;5.688;2023-05-07T13:46:44;11.98;;;9.07;;
55784;SDS011;41709;52.536;5.688;2023-05-07T13:49:10;11.07;;;8.05;;
55784;SDS011;41709;52.536;5.688;2023-05-07T13:51:36;12.50;;;7.78;;
55784;SDS011;41709;52.536;5.688;2023-05-07T13:54:01;11.48;;;8.40;;
55784;SDS011;41709;52.536;5.688;2023-05-07T13:56:27;11.60;;;7.50;;
55784;SDS011;41709;52.536;5.688;2023-05-07T13:58:55;8.88;;;6.72;;
55784;SDS011;41709;52.536;5.688;2023-05-07T14:01:21;9.40;;;7.65;;
55784;SDS011;41709;52.536;5.688;2023-05-07T14:03:46;14.00;;;10.15;;
55784;SDS011;41709;52.536;5.688;2023-05-07T14:06:12;12.30;;;9.05;;
55784;SDS011;41709;52.536;5.688;2023-05-07T14:08:38;11.85;;;9.50;;
55784;SDS011;41709;52.536;5.688;2023-05-07T14:11:03;12.13;;;9.65;;
55784;SDS011;41709;52.536;5.688;2023-05-07T14:13:29;12.32;;;10.05;;
55784;SDS011;41709;52.536;5.688;2023-05-07T14:15:55;14.77;;;10.30;;
55784;SDS011;41709;52.536;5.688;2023-05-07T14:18:21;13.65;;;10.60;;
55784;SDS011;41709;52.536;5.688;2023-05-07T14:20:47;13.90;;;10.63;;
55784;SDS011;41709;52.536;5.688;2023-05-07T14:23:13;12.15;;;8.93;;
55784;SDS011;41709;52.536;5.688;2023-05-07T14:25:39;11.88;;;9.63;;
55784;SDS011;41709;52.536;5.688;2023-05-07T14:28:06;11.77;;;8.35;;
55784;SDS011;41709;52.536;5.688;2023-05-07T14:30:31;11.05;;;8.52;;
55784;SDS011;41709;52.536;5.688;2023-05-07T14:32:57;12.20;;;8.00;;
55784;SDS011;41709;52.536;5.688;2023-05-07T14:35:22;12.32;;;8.18;;
55784;SDS011;41709;52.536;5.688;2023-05-07T14:37:48;7.82;;;6.47;;
55784;SDS011;41709;52.536;5.688;2023-05-07T14:40:14;10.65;;;7.35;;
55784;SDS011;41709;52.536;5.688;2023-05-07T14:42:39;11.30;;;7.88;;